sensor_id;sensor_type;location;lat;lon;timestamp;P1;durP1;ratioP1;P2;durP2;ratioP2
74749;SDS011;63269;53.330;-6.288;2023-04-25T00:00:28;13.50;;;8.63;;
74749;SDS011;63269;53.330;-6.288;2023-04-25T00:02:54;14.23;;;8.35;;
74749;SDS011;63269;53.330;-6.288;2023-04-25T00:05:21;15.35;;;8.65;;
74749;SDS011;63269;53.330;-6.288;2023-04-25T00:07:48;13.80;;;9.07;;
74749;SDS011;63269;53.330;-6.288;2023-04-25T00:10:14;12.02;;;8.07;;
74749;SDS011;63269;53.330;-6.288;2023-04-25T00:12:40;10.15;;;7.40;;
74749;SDS011;63269;53.330;-6.288;2023-04-25T00:15:06;10.98;;;6.80;;
74749;SDS011;63269;53.330;-6.288;2023-04-25T00:17:32;9.35;;;6.63;;
74749;SDS011;63269;53.330;-6.288;2023-04-25T00:19:57;11.07;;;6.78;;
74749;SDS011;63269;53.330;-6.288;2023-04-25T00:22:23;8.52;;;5.90;;
74749;SDS011;63269;53.330;-6.288;2023-04-25T00:24:49;9.48;;;6.18;;
74749;SDS011;63269;53.330;-6.288;2023-04-25T00:27:15;8.27;;;5.35;;
74749;SDS011;63269;53.330;-6.288;2023-04-25T00:29:41;6.13;;;5.03;;
74749;SDS011;63269;53.330;-6.288;2023-04-25T00:32:06;10.40;;;4.70;;
74749;SDS011;63269;53.330;-6.288;2023-04-25T00:34:31;6.25;;;4.68;;
74749;SDS011;63269;53.330;-6.288;2023-04-25T00:36:57;8.30;;;4.82;;
74749;SDS011;63269;53.330;-6.288;2023-04-25T00:39:22;6.05;;;4.57;;
74749;SDS011;63269;53.330;-6.288;2023-04-25T00:41:48;7.00;;;4.43;;
74749;SDS011;63269;53.330;-6.288;2023-04-25T00:44:13;7.60;;;4.70;;
74749;SDS011;63269;53.330;-6.288;2023-04-25T00:46:42;7.88;;;4.38;;
74749;SDS011;63269;53.330;-6.288;2023-04-25T00:49:07;8.32;;;4.38;;
74749;SDS011;63269;53.330;-6.288;2023-04-25T00:51:33;6.07;;;3.78;;
74749;SDS011;63269;53.330;-6.288;2023-04-25T00:53:59;6.82;;;4.18;;
74749;SDS011;63269;53.330;-6.288;2023-04-25T00:56:25;6.43;;;4.00;;
74749;SDS011;63269;53.330;-6.288;2023-04-25T00:58:52;8.25;;;3.42;;
74749;SDS011;63269;53.330;-6.288;2023-04-25T01:01:22;4.63;;;3.25;;
74749;SDS011;63269;53.330;-6.288;2023-04-25T01:03:47;5.15;;;3.10;;
74749;SDS011;63269;53.330;-6.288;2023-04-25T01:06:17;4.47;;;3.00;;
74749;SDS011;63269;53.330;-6.288;2023-04-25T01:08:42;4.90;;;3.17;;
74749;SDS011;63269;53.330;-6.288;2023-04-25T01:11:08;6.43;;;3.50;;
74749;SDS011;63269;53.330;-6.288;2023-04-25T01:13:34;5.32;;;3.10;;
74749;SDS011;63269;53.330;-6.288;2023-04-25T01:16:00;5.22;;;2.65;;
74749;SDS011;63269;53.330;-6.288;2023-04-25T01:18:26;5.85;;;3.10;;
74749;SDS011;63269;53.330;-6.288;2023-04-25T01:20:52;4.90;;;3.00;;
74749;SDS011;63269;53.330;-6.288;2023-04-25T01:23:18;4.15;;;2.63;;
74749;SDS011;63269;53.330;-6.288;2023-04-25T01:25:50;3.58;;;2.58;;
74749;SDS011;63269;53.330;-6.288;2023-04-25T01:28:15;3.00;;;2.33;;
74749;SDS011;63269;53.330;-6.288;2023-04-25T01:30:41;4.63;;;2.60;;
74749;SDS011;63269;53.330;-6.288;2023-04-25T01:33:08;4.88;;;2.13;;
74749;SDS011;63269;53.330;-6.288;2023-04-25T01:35:33;4.93;;;2.67;;
74749;SDS011;63269;53.330;-6.288;2023-04-25T01:37:59;2.72;;;2.03;;
74749;SDS011;63269;53.330;-6.288;2023-04-25T01:40:25;4.13;;;2.28;;
74749;SDS011;63269;53.330;-6.288;2023-04-25T01:42:52;4.47;;;2.00;;
74749;SDS011;63269;53.330;-6.288;2023-04-25T01:45:18;3.17;;;1.98;;
74749;SDS011;63269;53.330;-6.288;2023-04-25T01:47:43;3.83;;;1.63;;
74749;SDS011;63269;53.330;-6.288;2023-04-25T01:50:13;3.15;;;1.92;;
74749;SDS011;63269;53.330;-6.288;2023-04-25T01:52:41;3.88;;;2.03;;
74749;SDS011;63269;53.330;-6.288;2023-04-25T01:55:06;4.03;;;1.70;;
74749;SDS011;63269;53.330;-6.288;2023-04-25T01:57:32;3.95;;;1.95;;
74749;SDS011;63269;53.330;-6.288;2023-04-25T01:59:58;2.90;;;1.75;;
74749;SDS011;63269;53.330;-6.288;2023-04-25T02:02:26;3.78;;;1.63;;
74749;SDS011;63269;53.330;-6.288;2023-04-25T02:04:51;4.28;;;2.00;;
74749;SDS011;63269;53.330;-6.288;2023-04-25T02:07:17;2.60;;;1.92;;
74749;SDS011;63269;53.330;-6.288;2023-04-25T02:09:42;2.85;;;1.73;;
74749;SDS011;63269;53.330;-6.288;2023-04-25T02:12:09;3.03;;;1.90;;
74749;SDS011;63269;53.330;-6.288;2023-04-25T02:14:35;3.72;;;1.75;;
74749;SDS011;63269;53.330;-6.288;2023-04-25T02:17:00;3.58;;;2.55;;
74749;SDS011;63269;53.330;-6.288;2023-04-25T02:19:26;1.98;;;1.65;;
74749;SDS011;63269;53.330;-6.288;2023-04-25T02:21:51;4.13;;;2.13;;
74749;SDS011;63269;53.330;-6.288;2023-04-25T02:24:17;4.40;;;1.73;;
74749;SDS011;63269;53.330;-6.288;2023-04-25T02:26:42;3.78;;;1.73;;
74749;SDS011;63269;53.330;-6.288;2023-04-25T02:29:08;2.63;;;1.55;;
74749;SDS011;63269;53.330;-6.288;2023-04-25T02:31:34;3.25;;;1.85;;
74749;SDS011;63269;53.330;-6.288;2023-04-25T02:33:59;2.78;;;1.63;;
74749;SDS011;63269;53.330;-6.288;2023-04-25T02:36:25;3.88;;;1.55;;
74749;SDS011;63269;53.330;-6.288;2023-04-25T02:38:51;2.67;;;1.80;;
74749;SDS011;63269;53.330;-6.288;2023-04-25T02:41:17;3.45;;;1.55;;
74749;SDS011;63269;53.330;-6.288;2023-04-25T02:43:42;3.10;;;1.88;;
74749;SDS011;63269;53.330;-6.288;2023-04-25T02:46:08;2.90;;;1.90;;
74749;SDS011;63269;53.330;-6.288;2023-04-25T02:48:33;2.65;;;1.67;;
74749;SDS011;63269;53.330;-6.288;2023-04-25T02:50:59;3.53;;;1.67;;
74749;SDS011;63269;53.330;-6.288;2023-04-25T02:53:24;4.03;;;1.63;;
74749;SDS011;63269;53.330;-6.288;2023-04-25T02:55:50;2.85;;;1.52;;
74749;SDS011;63269;53.330;-6.288;2023-04-25T02:58:17;2.38;;;1.50;;
74749;SDS011;63269;53.330;-6.288;2023-04-25T03:00:42;3.15;;;1.48;;
74749;SDS011;63269;53.330;-6.288;2023-04-25T03:03:08;3.47;;;1.60;;
74749;SDS011;63269;53.330;-6.288;2023-04-25T03:05:33;3.58;;;1.50;;
74749;SDS011;63269;53.330;-6.288;2023-04-25T03:07:59;4.10;;;1.80;;
74749;SDS011;63269;53.330;-6.288;2023-04-25T03:10:24;2.42;;;1.60;;
74749;SDS011;63269;53.330;-6.288;2023-04-25T03:12:50;3.15;;;1.70;;
74749;SDS011;63269;53.330;-6.288;2023-04-25T03:15:15;2.45;;;1.52;;
74749;SDS011;63269;53.330;-6.288;2023-04-25T03:17:41;2.45;;;1.65;;
74749;SDS011;63269;53.330;-6.288;2023-04-25T03:20:07;2.95;;;1.40;;
74749;SDS011;63269;53.330;-6.288;2023-04-25T03:22:33;3.00;;;1.75;;
74749;SDS011;63269;53.330;-6.288;2023-04-25T03:24:58;4.22;;;1.67;;
74749;SDS011;63269;53.330;-6.288;2023-04-25T03:27:24;2.10;;;1.20;;
74749;SDS011;63269;53.330;-6.288;2023-04-25T03:29:49;2.35;;;1.73;;
74749;SDS011;63269;53.330;-6.288;2023-04-25T03:32:15;2.75;;;1.80;;
74749;SDS011;63269;53.330;-6.288;2023-04-25T03:34:40;4.82;;;2.05;;
74749;SDS011;63269;53.330;-6.288;2023-04-25T03:37:06;2.92;;;1.50;;
74749;SDS011;63269;53.330;-6.288;2023-04-25T03:39:31;3.30;;;1.73;;
74749;SDS011;63269;53.330;-6.288;2023-04-25T03:41:57;3.20;;;1.83;;
74749;SDS011;63269;53.330;-6.288;2023-04-25T03:44:22;2.75;;;1.70;;
74749;SDS011;63269;53.330;-6.288;2023-04-25T03:46:49;2.20;;;1.73;;
74749;SDS011;63269;53.330;-6.288;2023-04-25T03:49:14;3.67;;;2.15;;
74749;SDS011;63269;53.330;-6.288;2023-04-25T03:51:40;2.95;;;1.90;;
74749;SDS011;63269;53.330;-6.288;2023-04-25T03:54:05;3.78;;;1.77;;
74749;SDS011;63269;53.330;-6.288;2023-04-25T03:56:32;2.60;;;1.88;;
74749;SDS011;63269;53.330;-6.288;2023-04-25T03:58:57;2.45;;;1.70;;
74749;SDS011;63269;53.330;-6.288;2023-04-25T04:01:23;2.13;;;1.90;;
74749;SDS011;63269;53.330;-6.288;2023-04-25T04:03:48;3.05;;;1.50;;
74749;SDS011;63269;53.330;-6.288;2023-04-25T04:06:13;2.83;;;1.65;;
74749;SDS011;63269;53.330;-6.288;2023-04-25T04:08:39;3.55;;;2.10;;
74749;SDS011;63269;53.330;-6.288;2023-04-25T04:11:05;3.03;;;1.80;;
74749;SDS011;63269;53.330;-6.288;2023-04-25T04:13:31;2.85;;;1.90;;
74749;SDS011;63269;53.330;-6.288;2023-04-25T04:15:56;3.40;;;2.70;;
74749;SDS011;63269;53.330;-6.288;2023-04-25T04:18:22;2.47;;;1.80;;
74749;SDS011;63269;53.330;-6.288;2023-04-25T04:20:48;2.95;;;1.77;;
74749;SDS011;63269;53.330;-6.288;2023-04-25T04:23:14;2.95;;;1.60;;
74749;SDS011;63269;53.330;-6.288;2023-04-25T04:25:39;3.45;;;2.00;;
74749;SDS011;63269;53.330;-6.288;2023-04-25T04:28:05;2.85;;;1.85;;
74749;SDS011;63269;53.330;-6.288;2023-04-25T04:30:31;2.78;;;1.77;;
74749;SDS011;63269;53.330;-6.288;2023-04-25T04:32:58;3.33;;;1.95;;
74749;SDS011;63269;53.330;-6.288;2023-04-25T04:35:25;4.47;;;1.92;;
74749;SDS011;63269;53.330;-6.288;2023-04-25T04:37:51;3.63;;;1.85;;
74749;SDS011;63269;53.330;-6.288;2023-04-25T04:40:16;3.25;;;1.60;;
74749;SDS011;63269;53.330;-6.288;2023-04-25T04:42:42;2.95;;;1.55;;
74749;SDS011;63269;53.330;-6.288;2023-04-25T04:45:08;2.70;;;1.70;;
74749;SDS011;63269;53.330;-6.288;2023-04-25T04:47:35;3.55;;;1.67;;
74749;SDS011;63269;53.330;-6.288;2023-04-25T04:50:02;2.92;;;2.17;;
74749;SDS011;63269;53.330;-6.288;2023-04-25T04:52:29;2.10;;;1.58;;
74749;SDS011;63269;53.330;-6.288;2023-04-25T04:54:55;3.55;;;1.88;;
74749;SDS011;63269;53.330;-6.288;2023-04-25T04:57:20;3.97;;;1.80;;
74749;SDS011;63269;53.330;-6.288;2023-04-25T04:59:45;2.22;;;1.80;;
74749;SDS011;63269;53.330;-6.288;2023-04-25T05:02:11;3.35;;;1.75;;
74749;SDS011;63269;53.330;-6.288;2023-04-25T05:04:36;3.78;;;1.92;;
74749;SDS011;63269;53.330;-6.288;2023-04-25T05:07:02;2.30;;;1.45;;
74749;SDS011;63269;53.330;-6.288;2023-04-25T05:09:27;1.98;;;1.27;;
74749;SDS011;63269;53.330;-6.288;2023-04-25T05:11:53;2.60;;;1.55;;
74749;SDS011;63269;53.330;-6.288;2023-04-25T05:14:18;3.38;;;2.03;;
74749;SDS011;63269;53.330;-6.288;2023-04-25T05:16:44;2.40;;;1.83;;
74749;SDS011;63269;53.330;-6.288;2023-04-25T05:19:09;4.00;;;1.77;;
74749;SDS011;63269;53.330;-6.288;2023-04-25T05:21:35;3.33;;;1.35;;
74749;SDS011;63269;53.330;-6.288;2023-04-25T05:24:00;2.78;;;1.85;;
74749;SDS011;63269;53.330;-6.288;2023-04-25T05:26:26;3.92;;;2.05;;
74749;SDS011;63269;53.330;-6.288;2023-04-25T05:28:56;3.10;;;1.75;;
74749;SDS011;63269;53.330;-6.288;2023-04-25T05:31:22;3.42;;;1.70;;
74749;SDS011;63269;53.330;-6.288;2023-04-25T05:33:47;2.47;;;1.42;;
74749;SDS011;63269;53.330;-6.288;2023-04-25T05:36:13;2.25;;;1.60;;
74749;SDS011;63269;53.330;-6.288;2023-04-25T05:38:38;2.97;;;1.50;;
74749;SDS011;63269;53.330;-6.288;2023-04-25T05:41:04;3.00;;;1.85;;
74749;SDS011;63269;53.330;-6.288;2023-04-25T05:43:30;2.47;;;1.65;;
74749;SDS011;63269;53.330;-6.288;2023-04-25T05:45:55;2.17;;;1.50;;
74749;SDS011;63269;53.330;-6.288;2023-04-25T05:48:21;4.22;;;1.52;;
74749;SDS011;63269;53.330;-6.288;2023-04-25T05:50:46;2.75;;;1.48;;
74749;SDS011;63269;53.330;-6.288;2023-04-25T05:53:12;3.38;;;1.70;;
74749;SDS011;63269;53.330;-6.288;2023-04-25T05:55:37;3.13;;;1.90;;
74749;SDS011;63269;53.330;-6.288;2023-04-25T05:58:03;2.13;;;1.20;;
74749;SDS011;63269;53.330;-6.288;2023-04-25T06:00:30;3.50;;;1.67;;
74749;SDS011;63269;53.330;-6.288;2023-04-25T06:02:55;3.85;;;1.63;;
74749;SDS011;63269;53.330;-6.288;2023-04-25T06:05:20;2.88;;;1.60;;
74749;SDS011;63269;53.330;-6.288;2023-04-25T06:07:46;3.25;;;1.50;;
74749;SDS011;63269;53.330;-6.288;2023-04-25T06:10:11;4.93;;;2.22;;
74749;SDS011;63269;53.330;-6.288;2023-04-25T06:12:37;6.22;;;2.08;;
74749;SDS011;63269;53.330;-6.288;2023-04-25T06:15:03;5.40;;;1.90;;
74749;SDS011;63269;53.330;-6.288;2023-04-25T06:17:29;6.88;;;1.95;;
74749;SDS011;63269;53.330;-6.288;2023-04-25T06:19:55;3.65;;;2.10;;
74749;SDS011;63269;53.330;-6.288;2023-04-25T06:22:20;5.70;;;1.80;;
74749;SDS011;63269;53.330;-6.288;2023-04-25T06:24:46;3.25;;;1.48;;
74749;SDS011;63269;53.330;-6.288;2023-04-25T06:27:11;4.20;;;1.75;;
74749;SDS011;63269;53.330;-6.288;2023-04-25T06:29:37;4.00;;;1.73;;
74749;SDS011;63269;53.330;-6.288;2023-04-25T06:32:02;3.42;;;1.67;;
74749;SDS011;63269;53.330;-6.288;2023-04-25T06:34:28;2.67;;;1.40;;
74749;SDS011;63269;53.330;-6.288;2023-04-25T06:36:53;3.03;;;1.58;;
74749;SDS011;63269;53.330;-6.288;2023-04-25T06:39:19;3.28;;;1.30;;
74749;SDS011;63269;53.330;-6.288;2023-04-25T06:41:45;2.92;;;1.92;;
74749;SDS011;63269;53.330;-6.288;2023-04-25T06:44:10;3.10;;;1.70;;
74749;SDS011;63269;53.330;-6.288;2023-04-25T06:46:36;3.40;;;1.60;;
74749;SDS011;63269;53.330;-6.288;2023-04-25T06:49:02;3.50;;;1.83;;
74749;SDS011;63269;53.330;-6.288;2023-04-25T06:51:28;4.63;;;1.58;;
74749;SDS011;63269;53.330;-6.288;2023-04-25T06:53:54;2.58;;;1.27;;
74749;SDS011;63269;53.330;-6.288;2023-04-25T06:56:20;2.47;;;1.30;;
74749;SDS011;63269;53.330;-6.288;2023-04-25T06:58:46;3.20;;;1.30;;
74749;SDS011;63269;53.330;-6.288;2023-04-25T07:01:12;4.05;;;1.65;;
74749;SDS011;63269;53.330;-6.288;2023-04-25T07:03:37;2.35;;;1.20;;
74749;SDS011;63269;53.330;-6.288;2023-04-25T07:06:03;2.13;;;1.30;;
74749;SDS011;63269;53.330;-6.288;2023-04-25T07:08:29;2.90;;;1.50;;
74749;SDS011;63269;53.330;-6.288;2023-04-25T07:10:54;3.33;;;1.73;;
74749;SDS011;63269;53.330;-6.288;2023-04-25T07:13:20;3.13;;;1.20;;
74749;SDS011;63269;53.330;-6.288;2023-04-25T07:15:45;2.78;;;1.67;;
74749;SDS011;63269;53.330;-6.288;2023-04-25T07:18:13;4.15;;;1.45;;
74749;SDS011;63269;53.330;-6.288;2023-04-25T07:20:38;3.13;;;1.33;;
74749;SDS011;63269;53.330;-6.288;2023-04-25T07:23:04;2.75;;;1.58;;
74749;SDS011;63269;53.330;-6.288;2023-04-25T07:25:29;3.42;;;1.77;;
74749;SDS011;63269;53.330;-6.288;2023-04-25T07:27:55;2.50;;;1.40;;
74749;SDS011;63269;53.330;-6.288;2023-04-25T07:30:21;3.90;;;1.88;;
74749;SDS011;63269;53.330;-6.288;2023-04-25T07:32:47;2.55;;;1.48;;
74749;SDS011;63269;53.330;-6.288;2023-04-25T07:35:13;3.38;;;1.50;;
74749;SDS011;63269;53.330;-6.288;2023-04-25T07:37:38;3.47;;;1.60;;
74749;SDS011;63269;53.330;-6.288;2023-04-25T07:40:04;4.45;;;1.45;;
74749;SDS011;63269;53.330;-6.288;2023-04-25T07:42:30;3.03;;;1.77;;
74749;SDS011;63269;53.330;-6.288;2023-04-25T07:44:56;6.38;;;1.65;;
74749;SDS011;63269;53.330;-6.288;2023-04-25T07:47:21;4.07;;;1.70;;
74749;SDS011;63269;53.330;-6.288;2023-04-25T07:49:47;4.97;;;1.58;;
74749;SDS011;63269;53.330;-6.288;2023-04-25T07:52:12;4.55;;;1.90;;
74749;SDS011;63269;53.330;-6.288;2023-04-25T07:54:38;4.57;;;1.92;;
74749;SDS011;63269;53.330;-6.288;2023-04-25T07:57:03;4.57;;;1.80;;
74749;SDS011;63269;53.330;-6.288;2023-04-25T07:59:28;5.85;;;1.83;;
74749;SDS011;63269;53.330;-6.288;2023-04-25T08:01:54;3.78;;;1.65;;
74749;SDS011;63269;53.330;-6.288;2023-04-25T08:04:21;6.05;;;2.13;;
74749;SDS011;63269;53.330;-6.288;2023-04-25T08:06:47;4.55;;;1.98;;
74749;SDS011;63269;53.330;-6.288;2023-04-25T08:09:13;5.50;;;2.22;;
74749;SDS011;63269;53.330;-6.288;2023-04-25T08:11:38;6.70;;;2.63;;
74749;SDS011;63269;53.330;-6.288;2023-04-25T08:14:04;7.38;;;2.40;;
74749;SDS011;63269;53.330;-6.288;2023-04-25T08:16:30;6.78;;;2.58;;
74749;SDS011;63269;53.330;-6.288;2023-04-25T08:18:55;8.57;;;2.00;;
74749;SDS011;63269;53.330;-6.288;2023-04-25T08:21:21;6.72;;;2.28;;
74749;SDS011;63269;53.330;-6.288;2023-04-25T08:23:46;6.15;;;2.13;;
74749;SDS011;63269;53.330;-6.288;2023-04-25T08:26:12;5.28;;;2.60;;
74749;SDS011;63269;53.330;-6.288;2023-04-25T08:28:37;5.18;;;2.33;;
74749;SDS011;63269;53.330;-6.288;2023-04-25T08:31:03;4.40;;;2.00;;
74749;SDS011;63269;53.330;-6.288;2023-04-25T08:33:29;5.22;;;2.08;;
74749;SDS011;63269;53.330;-6.288;2023-04-25T08:35:55;4.05;;;1.90;;
74749;SDS011;63269;53.330;-6.288;2023-04-25T08:38:20;4.88;;;2.35;;
74749;SDS011;63269;53.330;-6.288;2023-04-25T08:40:47;6.47;;;3.10;;
74749;SDS011;63269;53.330;-6.288;2023-04-25T08:43:18;5.97;;;1.98;;
74749;SDS011;63269;53.330;-6.288;2023-04-25T08:45:44;4.53;;;2.15;;
74749;SDS011;63269;53.330;-6.288;2023-04-25T08:48:11;7.97;;;2.53;;
74749;SDS011;63269;53.330;-6.288;2023-04-25T08:50:45;6.45;;;2.83;;
74749;SDS011;63269;53.330;-6.288;2023-04-25T08:53:16;5.07;;;2.20;;
74749;SDS011;63269;53.330;-6.288;2023-04-25T08:55:43;6.95;;;2.30;;
74749;SDS011;63269;53.330;-6.288;2023-04-25T08:58:11;5.95;;;2.58;;
74749;SDS011;63269;53.330;-6.288;2023-04-25T09:00:37;6.50;;;2.30;;
74749;SDS011;63269;53.330;-6.288;2023-04-25T09:03:03;4.60;;;1.90;;
74749;SDS011;63269;53.330;-6.288;2023-04-25T09:05:30;7.72;;;2.47;;
74749;SDS011;63269;53.330;-6.288;2023-04-25T09:07:56;5.00;;;2.22;;
74749;SDS011;63269;53.330;-6.288;2023-04-25T09:10:23;8.00;;;2.47;;
74749;SDS011;63269;53.330;-6.288;2023-04-25T09:13:04;4.43;;;2.22;;
74749;SDS011;63269;53.330;-6.288;2023-04-25T09:15:31;7.28;;;2.80;;
74749;SDS011;63269;53.330;-6.288;2023-04-25T09:17:58;7.15;;;2.35;;
74749;SDS011;63269;53.330;-6.288;2023-04-25T09:20:24;4.50;;;2.10;;
74749;SDS011;63269;53.330;-6.288;2023-04-25T09:22:59;4.70;;;2.08;;
74749;SDS011;63269;53.330;-6.288;2023-04-25T09:25:26;4.25;;;2.30;;
74749;SDS011;63269;53.330;-6.288;2023-04-25T09:27:52;7.75;;;2.42;;
74749;SDS011;63269;53.330;-6.288;2023-04-25T09:30:26;4.07;;;1.70;;
74749;SDS011;63269;53.330;-6.288;2023-04-25T09:33:08;3.97;;;2.13;;
74749;SDS011;63269;53.330;-6.288;2023-04-25T09:35:35;6.40;;;2.08;;
74749;SDS011;63269;53.330;-6.288;2023-04-25T09:38:08;6.03;;;1.92;;
74749;SDS011;63269;53.330;-6.288;2023-04-25T09:40:38;2.58;;;1.60;;
74749;SDS011;63269;53.330;-6.288;2023-04-25T09:45:40;5.32;;;1.90;;
74749;SDS011;63269;53.330;-6.288;2023-04-25T09:48:06;3.63;;;1.75;;
74749;SDS011;63269;53.330;-6.288;2023-04-25T09:50:32;5.30;;;1.80;;
74749;SDS011;63269;53.330;-6.288;2023-04-25T09:53:04;6.43;;;1.80;;
74749;SDS011;63269;53.330;-6.288;2023-04-25T09:55:31;4.47;;;2.03;;
74749;SDS011;63269;53.330;-6.288;2023-04-25T09:57:57;3.50;;;1.73;;
74749;SDS011;63269;53.330;-6.288;2023-04-25T10:00:32;3.92;;;1.63;;
74749;SDS011;63269;53.330;-6.288;2023-04-25T10:02:58;3.28;;;1.65;;
74749;SDS011;63269;53.330;-6.288;2023-04-25T10:05:26;4.53;;;1.67;;
74749;SDS011;63269;53.330;-6.288;2023-04-25T10:07:55;3.40;;;1.35;;
74749;SDS011;63269;53.330;-6.288;2023-04-25T10:10:21;5.00;;;1.60;;
74749;SDS011;63269;53.330;-6.288;2023-04-25T10:12:50;5.20;;;2.22;;
74749;SDS011;63269;53.330;-6.288;2023-04-25T10:15:16;5.88;;;2.20;;
74749;SDS011;63269;53.330;-6.288;2023-04-25T10:17:42;5.80;;;1.80;;
74749;SDS011;63269;53.330;-6.288;2023-04-25T10:20:09;3.72;;;1.60;;
74749;SDS011;63269;53.330;-6.288;2023-04-25T10:22:36;3.65;;;1.80;;
74749;SDS011;63269;53.330;-6.288;2023-04-25T10:25:04;4.30;;;1.60;;
74749;SDS011;63269;53.330;-6.288;2023-04-25T10:27:31;5.20;;;1.80;;
74749;SDS011;63269;53.330;-6.288;2023-04-25T10:30:04;4.70;;;1.75;;
74749;SDS011;63269;53.330;-6.288;2023-04-25T10:32:36;4.30;;;1.27;;
74749;SDS011;63269;53.330;-6.288;2023-04-25T10:40:22;4.18;;;1.30;;
74749;SDS011;63269;53.330;-6.288;2023-04-25T10:42:48;2.25;;;1.05;;
74749;SDS011;63269;53.330;-6.288;2023-04-25T10:45:13;4.45;;;1.40;;
74749;SDS011;63269;53.330;-6.288;2023-04-25T10:47:48;3.22;;;1.40;;
74749;SDS011;63269;53.330;-6.288;2023-04-25T10:50:14;4.00;;;1.65;;
74749;SDS011;63269;53.330;-6.288;2023-04-25T10:52:41;2.85;;;1.63;;
74749;SDS011;63269;53.330;-6.288;2023-04-25T10:55:07;3.35;;;1.75;;
74749;SDS011;63269;53.330;-6.288;2023-04-25T10:57:42;3.60;;;1.85;;
74749;SDS011;63269;53.330;-6.288;2023-04-25T11:00:14;3.70;;;1.80;;
74749;SDS011;63269;53.330;-6.288;2023-04-25T11:02:48;3.78;;;1.55;;
74749;SDS011;63269;53.330;-6.288;2023-04-25T11:05:20;3.30;;;1.63;;
74749;SDS011;63269;53.330;-6.288;2023-04-25T11:07:50;4.32;;;1.63;;
74749;SDS011;63269;53.330;-6.288;2023-04-25T11:10:17;3.08;;;1.75;;
74749;SDS011;63269;53.330;-6.288;2023-04-25T11:12:44;6.05;;;1.63;;
74749;SDS011;63269;53.330;-6.288;2023-04-25T11:15:11;8.27;;;1.60;;
74749;SDS011;63269;53.330;-6.288;2023-04-25T11:17:36;2.75;;;1.67;;
74749;SDS011;63269;53.330;-6.288;2023-04-25T11:20:04;16.25;;;2.63;;
74749;SDS011;63269;53.330;-6.288;2023-04-25T11:22:36;4.05;;;1.52;;
74749;SDS011;63269;53.330;-6.288;2023-04-25T11:25:06;3.47;;;1.92;;
74749;SDS011;63269;53.330;-6.288;2023-04-25T11:27:33;4.63;;;1.45;;
74749;SDS011;63269;53.330;-6.288;2023-04-25T11:30:09;2.97;;;1.40;;
74749;SDS011;63269;53.330;-6.288;2023-04-25T11:32:35;5.15;;;1.50;;
74749;SDS011;63269;53.330;-6.288;2023-04-25T11:35:00;4.05;;;1.63;;
74749;SDS011;63269;53.330;-6.288;2023-04-25T11:37:26;3.78;;;1.35;;
74749;SDS011;63269;53.330;-6.288;2023-04-25T11:39:52;2.70;;;1.10;;
74749;SDS011;63269;53.330;-6.288;2023-04-25T11:42:17;4.47;;;1.33;;
74749;SDS011;63269;53.330;-6.288;2023-04-25T11:44:42;6.20;;;1.60;;
74749;SDS011;63269;53.330;-6.288;2023-04-25T11:47:08;3.72;;;1.20;;
74749;SDS011;63269;53.330;-6.288;2023-04-25T11:49:34;4.03;;;1.13;;
74749;SDS011;63269;53.330;-6.288;2023-04-25T11:52:00;3.83;;;1.50;;
74749;SDS011;63269;53.330;-6.288;2023-04-25T11:54:26;5.00;;;1.10;;
74749;SDS011;63269;53.330;-6.288;2023-04-25T11:56:51;2.53;;;1.40;;
74749;SDS011;63269;53.330;-6.288;2023-04-25T11:59:17;3.35;;;1.42;;
74749;SDS011;63269;53.330;-6.288;2023-04-25T12:01:49;3.92;;;1.30;;
74749;SDS011;63269;53.330;-6.288;2023-04-25T12:04:19;8.20;;;1.38;;
74749;SDS011;63269;53.330;-6.288;2023-04-25T12:06:52;5.07;;;1.30;;
74749;SDS011;63269;53.330;-6.288;2023-04-25T12:09:32;3.50;;;1.40;;
74749;SDS011;63269;53.330;-6.288;2023-04-25T12:11:59;3.33;;;1.30;;
74749;SDS011;63269;53.330;-6.288;2023-04-25T12:14:32;5.78;;;1.60;;
74749;SDS011;63269;53.330;-6.288;2023-04-25T12:17:00;4.82;;;1.50;;
74749;SDS011;63269;53.330;-6.288;2023-04-25T12:19:31;3.85;;;1.48;;
74749;SDS011;63269;53.330;-6.288;2023-04-25T12:21:59;5.43;;;1.50;;
74749;SDS011;63269;53.330;-6.288;2023-04-25T12:24:28;7.82;;;1.83;;
74749;SDS011;63269;53.330;-6.288;2023-04-25T12:29:29;3.00;;;1.35;;
74749;SDS011;63269;53.330;-6.288;2023-04-25T12:31:57;4.03;;;1.58;;
74749;SDS011;63269;53.330;-6.288;2023-04-25T12:34:23;4.35;;;1.90;;
74749;SDS011;63269;53.330;-6.288;2023-04-25T12:36:49;3.92;;;1.60;;
74749;SDS011;63269;53.330;-6.288;2023-04-25T12:39:20;2.58;;;1.23;;
74749;SDS011;63269;53.330;-6.288;2023-04-25T12:41:48;3.03;;;1.70;;
74749;SDS011;63269;53.330;-6.288;2023-04-25T12:44:14;4.50;;;1.42;;
74749;SDS011;63269;53.330;-6.288;2023-04-25T12:46:40;4.97;;;1.33;;
74749;SDS011;63269;53.330;-6.288;2023-04-25T12:49:06;4.55;;;1.23;;
74749;SDS011;63269;53.330;-6.288;2023-04-25T12:51:33;5.30;;;1.30;;
74749;SDS011;63269;53.330;-6.288;2023-04-25T12:53:59;7.70;;;2.33;;
74749;SDS011;63269;53.330;-6.288;2023-04-25T12:56:28;3.25;;;1.40;;
74749;SDS011;63269;53.330;-6.288;2023-04-25T12:58:54;6.90;;;1.60;;
74749;SDS011;63269;53.330;-6.288;2023-04-25T13:01:23;4.95;;;1.95;;
74749;SDS011;63269;53.330;-6.288;2023-04-25T13:03:49;5.37;;;1.53;;
74749;SDS011;63269;53.330;-6.288;2023-04-25T13:06:15;5.45;;;1.60;;
74749;SDS011;63269;53.330;-6.288;2023-04-25T13:08:41;6.10;;;1.52;;
74749;SDS011;63269;53.330;-6.288;2023-04-25T13:11:07;7.40;;;2.53;;
74749;SDS011;63269;53.330;-6.288;2023-04-25T13:13:33;5.22;;;1.95;;
74749;SDS011;63269;53.330;-6.288;2023-04-25T13:16:03;4.82;;;1.75;;
74749;SDS011;63269;53.330;-6.288;2023-04-25T13:20:55;3.33;;;1.10;;
74749;SDS011;63269;53.330;-6.288;2023-04-25T13:23:21;2.60;;;1.40;;
74749;SDS011;63269;53.330;-6.288;2023-04-25T13:25:47;5.72;;;1.80;;
74749;SDS011;63269;53.330;-6.288;2023-04-25T13:28:13;4.78;;;1.50;;
74749;SDS011;63269;53.330;-6.288;2023-04-25T13:30:38;4.28;;;1.45;;
74749;SDS011;63269;53.330;-6.288;2023-04-25T13:33:04;4.35;;;1.42;;
74749;SDS011;63269;53.330;-6.288;2023-04-25T13:35:31;4.60;;;1.88;;
74749;SDS011;63269;53.330;-6.288;2023-04-25T13:37:57;3.40;;;1.98;;
74749;SDS011;63269;53.330;-6.288;2023-04-25T13:40:23;5.85;;;1.88;;
74749;SDS011;63269;53.330;-6.288;2023-04-25T13:42:48;4.88;;;1.63;;
74749;SDS011;63269;53.330;-6.288;2023-04-25T13:45:14;4.97;;;1.90;;
74749;SDS011;63269;53.330;-6.288;2023-04-25T13:47:39;3.95;;;1.40;;
74749;SDS011;63269;53.330;-6.288;2023-04-25T13:50:05;6.10;;;2.08;;
74749;SDS011;63269;53.330;-6.288;2023-04-25T13:52:32;3.92;;;1.38;;
74749;SDS011;63269;53.330;-6.288;2023-04-25T13:54:57;2.97;;;1.55;;
74749;SDS011;63269;53.330;-6.288;2023-04-25T13:57:23;3.58;;;1.42;;
74749;SDS011;63269;53.330;-6.288;2023-04-25T13:59:49;4.15;;;1.48;;
74749;SDS011;63269;53.330;-6.288;2023-04-25T14:02:15;3.60;;;1.60;;
74749;SDS011;63269;53.330;-6.288;2023-04-25T14:04:41;3.97;;;1.65;;
74749;SDS011;63269;53.330;-6.288;2023-04-25T14:07:06;6.25;;;1.50;;
74749;SDS011;63269;53.330;-6.288;2023-04-25T14:09:31;4.28;;;1.58;;
74749;SDS011;63269;53.330;-6.288;2023-04-25T14:11:57;3.78;;;1.58;;
74749;SDS011;63269;53.330;-6.288;2023-04-25T14:14:22;7.60;;;2.28;;
74749;SDS011;63269;53.330;-6.288;2023-04-25T14:16:48;3.72;;;1.20;;
74749;SDS011;63269;53.330;-6.288;2023-04-25T14:19:15;5.45;;;1.80;;
74749;SDS011;63269;53.330;-6.288;2023-04-25T14:21:41;4.18;;;1.60;;
74749;SDS011;63269;53.330;-6.288;2023-04-25T14:24:06;4.72;;;1.85;;
74749;SDS011;63269;53.330;-6.288;2023-04-25T14:26:33;4.85;;;1.70;;
74749;SDS011;63269;53.330;-6.288;2023-04-25T14:29:00;5.10;;;1.75;;
74749;SDS011;63269;53.330;-6.288;2023-04-25T14:31:26;6.95;;;1.80;;
74749;SDS011;63269;53.330;-6.288;2023-04-25T14:33:52;3.22;;;1.63;;
74749;SDS011;63269;53.330;-6.288;2023-04-25T14:36:18;5.43;;;1.58;;
74749;SDS011;63269;53.330;-6.288;2023-04-25T14:38:43;4.88;;;1.65;;
74749;SDS011;63269;53.330;-6.288;2023-04-25T14:41:09;3.83;;;1.45;;